sensor_id;sensor_type;location;lat;lon;timestamp;P1;durP1;ratioP1;P2;durP2;ratioP2
59042;SDS011;44826;51.596;5.624;2023-02-28T00:00:11;9.73;;;6.23;;
59042;SDS011;44826;51.596;5.624;2023-02-28T00:02:39;9.30;;;6.10;;
59042;SDS011;44826;51.596;5.624;2023-02-28T00:05:06;10.30;;;6.43;;
59042;SDS011;44826;51.596;5.624;2023-02-28T00:07:33;9.23;;;6.10;;
59042;SDS011;44826;51.596;5.624;2023-02-28T00:09:58;8.97;;;5.90;;
59042;SDS011;44826;51.596;5.624;2023-02-28T00:12:25;10.53;;;6.30;;
59042;SDS011;44826;51.596;5.624;2023-02-28T00:14:50;9.33;;;6.20;;
59042;SDS011;44826;51.596;5.624;2023-02-28T00:17:15;10.23;;;5.93;;
59042;SDS011;44826;51.596;5.624;2023-02-28T00:19:43;11.57;;;5.87;;
59042;SDS011;44826;51.596;5.624;2023-02-28T00:22:08;9.63;;;6.10;;
59042;SDS011;44826;51.596;5.624;2023-02-28T00:24:34;9.57;;;5.87;;
59042;SDS011;44826;51.596;5.624;2023-02-28T00:26:59;9.87;;;5.90;;
59042;SDS011;44826;51.596;5.624;2023-02-28T00:29:24;11.23;;;6.00;;
59042;SDS011;44826;51.596;5.624;2023-02-28T00:31:49;7.50;;;5.37;;
59042;SDS011;44826;51.596;5.624;2023-02-28T00:34:15;10.73;;;5.87;;
59042;SDS011;44826;51.596;5.624;2023-02-28T00:36:40;9.20;;;5.43;;
59042;SDS011;44826;51.596;5.624;2023-02-28T00:39:10;9.03;;;5.77;;
59042;SDS011;44826;51.596;5.624;2023-02-28T00:41:35;8.77;;;5.60;;
59042;SDS011;44826;51.596;5.624;2023-02-28T00:44:01;8.27;;;5.13;;
59042;SDS011;44826;51.596;5.624;2023-02-28T00:46:26;7.70;;;4.93;;
59042;SDS011;44826;51.596;5.624;2023-02-28T00:48:51;8.50;;;5.27;;
59042;SDS011;44826;51.596;5.624;2023-02-28T00:51:17;7.93;;;5.03;;
59042;SDS011;44826;51.596;5.624;2023-02-28T00:53:42;9.73;;;5.37;;
59042;SDS011;44826;51.596;5.624;2023-02-28T00:56:07;8.03;;;4.67;;
59042;SDS011;44826;51.596;5.624;2023-02-28T00:58:32;8.87;;;5.50;;
59042;SDS011;44826;51.596;5.624;2023-02-28T01:00:58;8.00;;;5.53;;
59042;SDS011;44826;51.596;5.624;2023-02-28T01:03:23;7.90;;;5.00;;
59042;SDS011;44826;51.596;5.624;2023-02-28T01:05:48;7.43;;;4.80;;
59042;SDS011;44826;51.596;5.624;2023-02-28T01:08:14;7.80;;;4.63;;
59042;SDS011;44826;51.596;5.624;2023-02-28T01:10:40;8.23;;;4.60;;
59042;SDS011;44826;51.596;5.624;2023-02-28T01:13:05;8.07;;;4.50;;
59042;SDS011;44826;51.596;5.624;2023-02-28T01:15:31;7.53;;;4.63;;
59042;SDS011;44826;51.596;5.624;2023-02-28T01:17:57;7.40;;;5.10;;
59042;SDS011;44826;51.596;5.624;2023-02-28T01:20:23;7.53;;;4.90;;
59042;SDS011;44826;51.596;5.624;2023-02-28T01:22:48;8.17;;;4.67;;
59042;SDS011;44826;51.596;5.624;2023-02-28T01:25:14;10.13;;;4.93;;
59042;SDS011;44826;51.596;5.624;2023-02-28T01:27:39;7.60;;;5.00;;
59042;SDS011;44826;51.596;5.624;2023-02-28T01:30:05;6.73;;;4.53;;
59042;SDS011;44826;51.596;5.624;2023-02-28T01:32:32;7.70;;;4.53;;
59042;SDS011;44826;51.596;5.624;2023-02-28T01:34:57;8.03;;;4.93;;
59042;SDS011;44826;51.596;5.624;2023-02-28T01:37:22;10.40;;;5.37;;
59042;SDS011;44826;51.596;5.624;2023-02-28T01:39:48;7.67;;;4.70;;
59042;SDS011;44826;51.596;5.624;2023-02-28T01:42:13;7.93;;;4.83;;
59042;SDS011;44826;51.596;5.624;2023-02-28T01:47:26;7.60;;;4.83;;
59042;SDS011;44826;51.596;5.624;2023-02-28T01:50:03;8.27;;;4.90;;
59042;SDS011;44826;51.596;5.624;2023-02-28T01:52:31;8.47;;;4.80;;
59042;SDS011;44826;51.596;5.624;2023-02-28T01:54:57;7.80;;;4.90;;
59042;SDS011;44826;51.596;5.624;2023-02-28T01:57:27;8.30;;;4.83;;
59042;SDS011;44826;51.596;5.624;2023-02-28T02:00:03;10.07;;;5.03;;
59042;SDS011;44826;51.596;5.624;2023-02-28T02:02:32;8.87;;;5.40;;
59042;SDS011;44826;51.596;5.624;2023-02-28T02:05:00;10.43;;;5.37;;
59042;SDS011;44826;51.596;5.624;2023-02-28T02:07:31;8.73;;;5.00;;
59042;SDS011;44826;51.596;5.624;2023-02-28T02:10:29;9.97;;;5.70;;
59042;SDS011;44826;51.596;5.624;2023-02-28T02:15:37;9.00;;;5.67;;
59042;SDS011;44826;51.596;5.624;2023-02-28T02:18:18;9.27;;;5.50;;
59042;SDS011;44826;51.596;5.624;2023-02-28T02:20:59;8.23;;;5.50;;
59042;SDS011;44826;51.596;5.624;2023-02-28T02:37:00;6.70;;;4.37;;
59042;SDS011;44826;51.596;5.624;2023-02-28T02:39:38;8.70;;;5.40;;
59042;SDS011;44826;51.596;5.624;2023-02-28T02:42:15;9.90;;;6.17;;
59042;SDS011;44826;51.596;5.624;2023-02-28T02:44:47;9.50;;;5.20;;
59042;SDS011;44826;51.596;5.624;2023-02-28T02:47:19;9.43;;;5.53;;
59042;SDS011;44826;51.596;5.624;2023-02-28T02:49:47;8.83;;;5.37;;
59042;SDS011;44826;51.596;5.624;2023-02-28T02:52:17;8.23;;;5.20;;
59042;SDS011;44826;51.596;5.624;2023-02-28T02:54:46;9.07;;;5.27;;
59042;SDS011;44826;51.596;5.624;2023-02-28T02:57:15;10.17;;;4.97;;
59042;SDS011;44826;51.596;5.624;2023-02-28T02:59:47;7.70;;;4.70;;
59042;SDS011;44826;51.596;5.624;2023-02-28T03:02:15;7.43;;;4.57;;
59042;SDS011;44826;51.596;5.624;2023-02-28T03:04:46;6.30;;;4.40;;
59042;SDS011;44826;51.596;5.624;2023-02-28T03:07:16;7.33;;;4.43;;
59042;SDS011;44826;51.596;5.624;2023-02-28T03:09:49;8.37;;;4.70;;
59042;SDS011;44826;51.596;5.624;2023-02-28T03:12:16;7.63;;;4.83;;
59042;SDS011;44826;51.596;5.624;2023-02-28T03:28:00;6.57;;;4.47;;
59042;SDS011;44826;51.596;5.624;2023-02-28T03:33:54;8.27;;;4.40;;
59042;SDS011;44826;51.596;5.624;2023-02-28T03:36:04;8.75;;;4.25;;
59042;SDS011;44826;51.596;5.624;2023-02-28T03:38:40;7.63;;;4.00;;
59042;SDS011;44826;51.596;5.624;2023-02-28T03:41:14;7.00;;;4.17;;
59042;SDS011;44826;51.596;5.624;2023-02-28T03:43:43;7.63;;;3.97;;
59042;SDS011;44826;51.596;5.624;2023-02-28T03:46:14;6.22;;;3.95;;
59042;SDS011;44826;51.596;5.624;2023-02-28T03:48:48;7.17;;;3.93;;
59042;SDS011;44826;51.596;5.624;2023-02-28T03:51:20;6.57;;;4.13;;
59042;SDS011;44826;51.596;5.624;2023-02-28T03:53:50;9.03;;;4.10;;
59042;SDS011;44826;51.596;5.624;2023-02-28T03:56:24;7.03;;;4.30;;
59042;SDS011;44826;51.596;5.624;2023-02-28T04:01:35;6.17;;;3.87;;
59042;SDS011;44826;51.596;5.624;2023-02-28T04:04:06;8.30;;;4.40;;
59042;SDS011;44826;51.596;5.624;2023-02-28T04:06:32;6.77;;;3.77;;
59042;SDS011;44826;51.596;5.624;2023-02-28T04:08:58;5.77;;;3.40;;
59042;SDS011;44826;51.596;5.624;2023-02-28T04:11:30;5.20;;;3.40;;
59042;SDS011;44826;51.596;5.624;2023-02-28T04:13:59;7.03;;;3.40;;
59042;SDS011;44826;51.596;5.624;2023-02-28T04:16:25;6.13;;;3.33;;
59042;SDS011;44826;51.596;5.624;2023-02-28T04:18:50;5.10;;;3.20;;
59042;SDS011;44826;51.596;5.624;2023-02-28T04:21:15;6.37;;;3.80;;
59042;SDS011;44826;51.596;5.624;2023-02-28T04:23:45;7.87;;;3.60;;
59042;SDS011;44826;51.596;5.624;2023-02-28T04:26:10;6.70;;;3.47;;
59042;SDS011;44826;51.596;5.624;2023-02-28T04:28:36;5.40;;;3.00;;
59042;SDS011;44826;51.596;5.624;2023-02-28T04:31:02;7.27;;;3.40;;
59042;SDS011;44826;51.596;5.624;2023-02-28T04:33:30;5.17;;;3.30;;
59042;SDS011;44826;51.596;5.624;2023-02-28T04:36:00;5.33;;;3.27;;
59042;SDS011;44826;51.596;5.624;2023-02-28T04:38:27;5.53;;;3.25;;
59042;SDS011;44826;51.596;5.624;2023-02-28T04:40:56;6.10;;;3.37;;
59042;SDS011;44826;51.596;5.624;2023-02-28T04:43:22;5.87;;;3.33;;
59042;SDS011;44826;51.596;5.624;2023-02-28T04:45:47;5.90;;;3.10;;
59042;SDS011;44826;51.596;5.624;2023-02-28T04:48:12;4.70;;;3.00;;
59042;SDS011;44826;51.596;5.624;2023-02-28T04:50:38;5.20;;;3.20;;
59042;SDS011;44826;51.596;5.624;2023-02-28T04:53:03;5.77;;;3.07;;
59042;SDS011;44826;51.596;5.624;2023-02-28T04:55:28;5.47;;;3.33;;
59042;SDS011;44826;51.596;5.624;2023-02-28T04:57:53;4.43;;;2.90;;
59042;SDS011;44826;51.596;5.624;2023-02-28T05:00:19;8.57;;;3.83;;
59042;SDS011;44826;51.596;5.624;2023-02-28T05:02:44;7.00;;;3.40;;
59042;SDS011;44826;51.596;5.624;2023-02-28T05:05:09;5.53;;;3.30;;
59042;SDS011;44826;51.596;5.624;2023-02-28T05:07:35;5.13;;;3.30;;
59042;SDS011;44826;51.596;5.624;2023-02-28T05:10:00;5.70;;;3.27;;
59042;SDS011;44826;51.596;5.624;2023-02-28T05:12:25;7.77;;;3.60;;
59042;SDS011;44826;51.596;5.624;2023-02-28T05:14:50;6.07;;;3.70;;
59042;SDS011;44826;51.596;5.624;2023-02-28T05:17:16;6.77;;;3.57;;
59042;SDS011;44826;51.596;5.624;2023-02-28T05:19:41;6.07;;;3.73;;
59042;SDS011;44826;51.596;5.624;2023-02-28T05:22:11;7.20;;;3.73;;
59042;SDS011;44826;51.596;5.624;2023-02-28T05:24:39;5.60;;;3.63;;
59042;SDS011;44826;51.596;5.624;2023-02-28T05:27:04;7.83;;;3.87;;
59042;SDS011;44826;51.596;5.624;2023-02-28T05:29:29;5.60;;;3.50;;
59042;SDS011;44826;51.596;5.624;2023-02-28T05:31:55;6.43;;;3.60;;
59042;SDS011;44826;51.596;5.624;2023-02-28T05:34:20;5.33;;;3.47;;
59042;SDS011;44826;51.596;5.624;2023-02-28T05:36:45;5.03;;;3.30;;
59042;SDS011;44826;51.596;5.624;2023-02-28T05:39:11;5.10;;;3.37;;
59042;SDS011;44826;51.596;5.624;2023-02-28T05:41:38;5.10;;;3.23;;
59042;SDS011;44826;51.596;5.624;2023-02-28T05:44:04;5.60;;;3.40;;
59042;SDS011;44826;51.596;5.624;2023-02-28T05:46:30;6.90;;;3.60;;
59042;SDS011;44826;51.596;5.624;2023-02-28T05:48:55;6.37;;;3.80;;
59042;SDS011;44826;51.596;5.624;2023-02-28T05:51:22;5.47;;;3.43;;
59042;SDS011;44826;51.596;5.624;2023-02-28T05:53:48;6.10;;;3.70;;
59042;SDS011;44826;51.596;5.624;2023-02-28T05:56:14;5.90;;;3.20;;
59042;SDS011;44826;51.596;5.624;2023-02-28T05:58:39;5.83;;;3.67;;
59042;SDS011;44826;51.596;5.624;2023-02-28T06:01:24;6.83;;;4.20;;
59042;SDS011;44826;51.596;5.624;2023-02-28T06:06:24;7.10;;;4.37;;
59042;SDS011;44826;51.596;5.624;2023-02-28T06:08:49;7.90;;;4.20;;
59042;SDS011;44826;51.596;5.624;2023-02-28T06:11:14;6.57;;;3.93;;
59042;SDS011;44826;51.596;5.624;2023-02-28T06:13:40;6.67;;;3.83;;
59042;SDS011;44826;51.596;5.624;2023-02-28T06:16:05;5.67;;;3.50;;
59042;SDS011;44826;51.596;5.624;2023-02-28T06:18:31;8.07;;;3.87;;
59042;SDS011;44826;51.596;5.624;2023-02-28T06:20:56;6.40;;;3.70;;
59042;SDS011;44826;51.596;5.624;2023-02-28T06:23:21;7.50;;;4.07;;
59042;SDS011;44826;51.596;5.624;2023-02-28T06:25:47;5.20;;;3.50;;
59042;SDS011;44826;51.596;5.624;2023-02-28T06:28:12;7.00;;;4.00;;
59042;SDS011;44826;51.596;5.624;2023-02-28T06:30:38;6.37;;;4.07;;
59042;SDS011;44826;51.596;5.624;2023-02-28T06:33:04;6.63;;;3.70;;
59042;SDS011;44826;51.596;5.624;2023-02-28T06:35:30;7.50;;;3.67;;
59042;SDS011;44826;51.596;5.624;2023-02-28T06:37:55;6.20;;;3.73;;
59042;SDS011;44826;51.596;5.624;2023-02-28T06:40:20;5.73;;;3.50;;
59042;SDS011;44826;51.596;5.624;2023-02-28T06:42:46;6.43;;;3.60;;
59042;SDS011;44826;51.596;5.624;2023-02-28T06:45:11;6.07;;;4.03;;
59042;SDS011;44826;51.596;5.624;2023-02-28T06:47:37;6.10;;;3.67;;
59042;SDS011;44826;51.596;5.624;2023-02-28T06:50:04;5.03;;;2.97;;
59042;SDS011;44826;51.596;5.624;2023-02-28T06:52:30;6.23;;;3.53;;
59042;SDS011;44826;51.596;5.624;2023-02-28T06:54:55;5.67;;;3.83;;
59042;SDS011;44826;51.596;5.624;2023-02-28T06:57:27;4.95;;;3.05;;
59042;SDS011;44826;51.596;5.624;2023-02-28T06:59:59;6.33;;;4.03;;
59042;SDS011;44826;51.596;5.624;2023-02-28T07:02:26;7.50;;;3.93;;
59042;SDS011;44826;51.596;5.624;2023-02-28T07:04:52;8.77;;;4.30;;
59042;SDS011;44826;51.596;5.624;2023-02-28T07:07:17;7.20;;;4.17;;
59042;SDS011;44826;51.596;5.624;2023-02-28T07:09:43;8.17;;;4.33;;
59042;SDS011;44826;51.596;5.624;2023-02-28T07:12:08;5.83;;;3.90;;
59042;SDS011;44826;51.596;5.624;2023-02-28T07:14:33;5.33;;;3.47;;
59042;SDS011;44826;51.596;5.624;2023-02-28T07:17:01;6.10;;;3.33;;
59042;SDS011;44826;51.596;5.624;2023-02-28T07:19:26;5.90;;;3.60;;
59042;SDS011;44826;51.596;5.624;2023-02-28T07:21:51;6.13;;;3.70;;
59042;SDS011;44826;51.596;5.624;2023-02-28T07:24:16;5.50;;;3.50;;
59042;SDS011;44826;51.596;5.624;2023-02-28T07:26:42;8.37;;;3.70;;
59042;SDS011;44826;51.596;5.624;2023-02-28T07:29:08;7.27;;;3.30;;
59042;SDS011;44826;51.596;5.624;2023-02-28T07:31:33;6.27;;;3.40;;
59042;SDS011;44826;51.596;5.624;2023-02-28T07:33:58;4.80;;;3.30;;
59042;SDS011;44826;51.596;5.624;2023-02-28T07:36:24;7.87;;;3.33;;
59042;SDS011;44826;51.596;5.624;2023-02-28T07:38:49;7.60;;;3.90;;
59042;SDS011;44826;51.596;5.624;2023-02-28T07:41:18;5.77;;;3.30;;
59042;SDS011;44826;51.596;5.624;2023-02-28T07:43:46;5.65;;;3.95;;
59042;SDS011;44826;51.596;5.624;2023-02-28T07:46:12;6.23;;;3.50;;
59042;SDS011;44826;51.596;5.624;2023-02-28T07:48:42;5.03;;;3.53;;
59042;SDS011;44826;51.596;5.624;2023-02-28T07:51:08;6.67;;;4.10;;
59042;SDS011;44826;51.596;5.624;2023-02-28T07:53:34;6.07;;;3.60;;
59042;SDS011;44826;51.596;5.624;2023-02-28T07:56:00;5.40;;;3.10;;
59042;SDS011;44826;51.596;5.624;2023-02-28T07:58:27;6.13;;;3.30;;
59042;SDS011;44826;51.596;5.624;2023-02-28T08:00:54;5.63;;;3.20;;
59042;SDS011;44826;51.596;5.624;2023-02-28T08:03:20;6.00;;;3.23;;
59042;SDS011;44826;51.596;5.624;2023-02-28T08:05:47;6.83;;;3.50;;
59042;SDS011;44826;51.596;5.624;2023-02-28T08:08:13;6.13;;;3.50;;
59042;SDS011;44826;51.596;5.624;2023-02-28T08:10:39;5.50;;;3.13;;
59042;SDS011;44826;51.596;5.624;2023-02-28T08:13:04;6.73;;;3.20;;
59042;SDS011;44826;51.596;5.624;2023-02-28T08:15:29;4.73;;;2.90;;
59042;SDS011;44826;51.596;5.624;2023-02-28T08:17:55;5.30;;;2.70;;
59042;SDS011;44826;51.596;5.624;2023-02-28T08:20:23;4.80;;;2.80;;
59042;SDS011;44826;51.596;5.624;2023-02-28T08:22:49;4.23;;;2.70;;
59042;SDS011;44826;51.596;5.624;2023-02-28T08:25:15;5.97;;;2.80;;
59042;SDS011;44826;51.596;5.624;2023-02-28T08:27:40;5.43;;;3.00;;
59042;SDS011;44826;51.596;5.624;2023-02-28T08:30:06;4.17;;;2.70;;
59042;SDS011;44826;51.596;5.624;2023-02-28T08:32:32;4.10;;;2.67;;
59042;SDS011;44826;51.596;5.624;2023-02-28T08:34:58;4.77;;;2.67;;
59042;SDS011;44826;51.596;5.624;2023-02-28T08:37:24;4.00;;;2.43;;
59042;SDS011;44826;51.596;5.624;2023-02-28T08:39:49;4.10;;;2.50;;
59042;SDS011;44826;51.596;5.624;2023-02-28T08:42:15;3.97;;;2.40;;
59042;SDS011;44826;51.596;5.624;2023-02-28T08:44:40;3.90;;;2.40;;
59042;SDS011;44826;51.596;5.624;2023-02-28T08:47:05;3.00;;;2.10;;
59042;SDS011;44826;51.596;5.624;2023-02-28T08:49:31;3.30;;;2.00;;
59042;SDS011;44826;51.596;5.624;2023-02-28T08:51:56;3.43;;;2.07;;
59042;SDS011;44826;51.596;5.624;2023-02-28T08:54:22;2.57;;;1.73;;
59042;SDS011;44826;51.596;5.624;2023-02-28T08:56:47;3.03;;;1.90;;
59042;SDS011;44826;51.596;5.624;2023-02-28T08:59:13;3.73;;;2.00;;
59042;SDS011;44826;51.596;5.624;2023-02-28T09:01:39;2.57;;;1.70;;
59042;SDS011;44826;51.596;5.624;2023-02-28T09:04:06;2.73;;;1.70;;
59042;SDS011;44826;51.596;5.624;2023-02-28T09:06:33;3.70;;;2.07;;
59042;SDS011;44826;51.596;5.624;2023-02-28T09:08:59;3.87;;;1.90;;
59042;SDS011;44826;51.596;5.624;2023-02-28T09:11:26;3.83;;;1.70;;
59042;SDS011;44826;51.596;5.624;2023-02-28T09:13:52;2.80;;;1.70;;
59042;SDS011;44826;51.596;5.624;2023-02-28T09:16:17;2.67;;;1.77;;
59042;SDS011;44826;51.596;5.624;2023-02-28T09:18:43;2.50;;;1.60;;
59042;SDS011;44826;51.596;5.624;2023-02-28T09:21:10;2.97;;;1.83;;
59042;SDS011;44826;51.596;5.624;2023-02-28T09:23:39;4.03;;;1.73;;
59042;SDS011;44826;51.596;5.624;2023-02-28T09:26:05;3.47;;;1.80;;
59042;SDS011;44826;51.596;5.624;2023-02-28T09:28:31;2.80;;;1.70;;
59042;SDS011;44826;51.596;5.624;2023-02-28T09:30:57;3.80;;;1.80;;
59042;SDS011;44826;51.596;5.624;2023-02-28T09:33:23;2.90;;;1.77;;
59042;SDS011;44826;51.596;5.624;2023-02-28T09:35:50;2.73;;;1.70;;
59042;SDS011;44826;51.596;5.624;2023-02-28T09:43:17;3.00;;;1.70;;
59042;SDS011;44826;51.596;5.624;2023-02-28T09:45:47;3.27;;;1.77;;
59042;SDS011;44826;51.596;5.624;2023-02-28T09:48:24;3.20;;;1.67;;
59042;SDS011;44826;51.596;5.624;2023-02-28T09:51:05;2.58;;;1.50;;
59042;SDS011;44826;51.596;5.624;2023-02-28T09:53:37;3.27;;;1.60;;
59042;SDS011;44826;51.596;5.624;2023-02-28T09:58:39;2.13;;;1.43;;
59042;SDS011;44826;51.596;5.624;2023-02-28T10:06:46;2.30;;;1.60;;
59042;SDS011;44826;51.596;5.624;2023-02-28T10:09:24;1.60;;;1.20;;
59042;SDS011;44826;51.596;5.624;2023-02-28T10:11:56;2.50;;;1.40;;
59042;SDS011;44826;51.596;5.624;2023-02-28T10:14:28;2.30;;;1.37;;
59042;SDS011;44826;51.596;5.624;2023-02-28T10:16:56;2.10;;;1.50;;
59042;SDS011;44826;51.596;5.624;2023-02-28T10:19:33;2.08;;;1.23;;
59042;SDS011;44826;51.596;5.624;2023-02-28T10:22:17;1.77;;;1.20;;
59042;SDS011;44826;51.596;5.624;2023-02-28T10:24:47;2.03;;;1.33;;
59042;SDS011;44826;51.596;5.624;2023-02-28T10:27:25;2.33;;;1.50;;
59042;SDS011;44826;51.596;5.624;2023-02-28T10:29:55;1.80;;;1.10;;
59042;SDS011;44826;51.596;5.624;2023-02-28T10:32:24;3.10;;;1.20;;
59042;SDS011;44826;51.596;5.624;2023-02-28T10:37:25;2.47;;;1.30;;
59042;SDS011;44826;51.596;5.624;2023-02-28T10:39:51;2.33;;;1.50;;
59042;SDS011;44826;51.596;5.624;2023-02-28T10:42:24;1.73;;;1.30;;
59042;SDS011;44826;51.596;5.624;2023-02-28T10:45:10;2.17;;;1.30;;
59042;SDS011;44826;51.596;5.624;2023-02-28T10:47:41;4.00;;;1.60;;
59042;SDS011;44826;51.596;5.624;2023-02-28T10:50:37;2.30;;;1.40;;
59042;SDS011;44826;51.596;5.624;2023-02-28T10:56:01;3.10;;;1.20;;
59042;SDS011;44826;51.596;5.624;2023-02-28T10:58:46;2.00;;;1.43;;
59042;SDS011;44826;51.596;5.624;2023-02-28T11:01:47;2.10;;;1.20;;
59042;SDS011;44826;51.596;5.624;2023-02-28T11:06:44;3.13;;;1.30;;
59042;SDS011;44826;51.596;5.624;2023-02-28T11:09:23;1.80;;;1.20;;
59042;SDS011;44826;51.596;5.624;2023-02-28T11:11:56;1.87;;;1.20;;
59042;SDS011;44826;51.596;5.624;2023-02-28T11:14:23;2.20;;;1.10;;
59042;SDS011;44826;51.596;5.624;2023-02-28T11:16:51;1.87;;;1.33;;
59042;SDS011;44826;51.596;5.624;2023-02-28T11:19:40;1.30;;;1.10;;
59042;SDS011;44826;51.596;5.624;2023-02-28T11:22:09;1.73;;;1.20;;
59042;SDS011;44826;51.596;5.624;2023-02-28T11:24:42;2.50;;;1.37;;
59042;SDS011;44826;51.596;5.624;2023-02-28T11:27:40;2.10;;;1.40;;
59042;SDS011;44826;51.596;5.624;2023-02-28T11:32:52;2.17;;;1.37;;
59042;SDS011;44826;51.596;5.624;2023-02-28T11:35:19;2.23;;;1.40;;
59042;SDS011;44826;51.596;5.624;2023-02-28T11:37:49;3.20;;;1.50;;
59042;SDS011;44826;51.596;5.624;2023-02-28T11:40:16;3.07;;;1.50;;
59042;SDS011;44826;51.596;5.624;2023-02-28T11:42:51;2.70;;;1.67;;
59042;SDS011;44826;51.596;5.624;2023-02-28T11:54:03;3.13;;;1.40;;
59042;SDS011;44826;51.596;5.624;2023-02-28T11:56:57;2.23;;;1.40;;
59042;SDS011;44826;51.596;5.624;2023-02-28T12:10:28;2.70;;;1.70;;
59042;SDS011;44826;51.596;5.624;2023-02-28T12:15:41;2.97;;;1.60;;
59042;SDS011;44826;51.596;5.624;2023-02-28T12:26:49;2.67;;;1.70;;
59042;SDS011;44826;51.596;5.624;2023-02-28T12:29:17;2.40;;;1.60;;
59042;SDS011;44826;51.596;5.624;2023-02-28T12:34:47;3.77;;;1.67;;
59042;SDS011;44826;51.596;5.624;2023-02-28T12:37:15;3.13;;;1.70;;
59042;SDS011;44826;51.596;5.624;2023-02-28T12:39:48;2.10;;;1.50;;
59042;SDS011;44826;51.596;5.624;2023-02-28T12:42:24;2.90;;;1.90;;
59042;SDS011;44826;51.596;5.624;2023-02-28T12:44:57;2.30;;;1.53;;
59042;SDS011;44826;51.596;5.624;2023-02-28T12:47:26;3.37;;;1.70;;
59042;SDS011;44826;51.596;5.624;2023-02-28T12:52:35;2.60;;;1.67;;
59042;SDS011;44826;51.596;5.624;2023-02-28T12:55:12;2.20;;;1.70;;
59042;SDS011;44826;51.596;5.624;2023-02-28T12:57:55;2.73;;;1.80;;
59042;SDS011;44826;51.596;5.624;2023-02-28T13:00:33;2.73;;;1.87;;
59042;SDS011;44826;51.596;5.624;2023-02-28T13:03:06;4.22;;;1.70;;
59042;SDS011;44826;51.596;5.624;2023-02-28T13:09:16;2.80;;;1.70;;
59042;SDS011;44826;51.596;5.624;2023-02-28T13:19:40;2.30;;;1.60;;
59042;SDS011;44826;51.596;5.624;2023-02-28T13:27:48;2.13;;;1.70;;
59042;SDS011;44826;51.596;5.624;2023-02-28T13:33:24;2.38;;;1.50;;
59042;SDS011;44826;51.596;5.624;2023-02-28T13:36:08;3.55;;;1.52;;
59042;SDS011;44826;51.596;5.624;2023-02-28T13:38:36;2.10;;;1.40;;
59042;SDS011;44826;51.596;5.624;2023-02-28T13:57:34;2.30;;;1.65;;
59042;SDS011;44826;51.596;5.624;2023-02-28T14:03:23;3.20;;;1.70;;
59042;SDS011;44826;51.596;5.624;2023-02-28T14:06:08;2.90;;;1.70;;
59042;SDS011;44826;51.596;5.624;2023-02-28T14:11:38;1.67;;;1.55;;
59042;SDS011;44826;51.596;5.624;2023-02-28T14:14:05;3.13;;;1.85;;
59042;SDS011;44826;51.596;5.624;2023-02-28T14:16:37;2.55;;;1.80;;
59042;SDS011;44826;51.596;5.624;2023-02-28T14:30:14;2.95;;;1.42;;
59042;SDS011;44826;51.596;5.624;2023-02-28T14:41:04;3.15;;;1.90;;
59042;SDS011;44826;51.596;5.624;2023-02-28T14:43:46;1.70;;;1.50;;
59042;SDS011;44826;51.596;5.624;2023-02-28T14:46:14;2.10;;;1.70;;
59042;SDS011;44826;51.596;5.624;2023-02-28T14:48:41;2.50;;;1.67;;
59042;SDS011;44826;51.596;5.624;2023-02-28T14:51:10;2.63;;;1.83;;
59042;SDS011;44826;51.596;5.624;2023-02-28T14:53:36;4.07;;;1.95;;
59042;SDS011;44826;51.596;5.624;2023-02-28T14:56:02;2.85;;;1.67;;
59042;SDS011;44826;51.596;5.624;2023-02-28T14:58:29;2.72;;;1.83;;
59042;SDS011;44826;51.596;5.624;2023-02-28T15:00:57;3.22;;;2.20;;
59042;SDS011;44826;51.596;5.624;2023-02-28T15:03:34;2.83;;;2.20;;
59042;SDS011;44826;51.596;5.624;2023-02-28T15:06:12;2.85;;;2.10;;
59042;SDS011;44826;51.596;5.624;2023-02-28T15:08:39;3.60;;;1.90;;
59042;SDS011;44826;51.596;5.624;2023-02-28T15:11:06;3.25;;;2.20;;
59042;SDS011;44826;51.596;5.624;2023-02-28T15:13:40;4.35;;;2.00;;
59042;SDS011;44826;51.596;5.624;2023-02-28T15:16:12;3.50;;;2.13;;
59042;SDS011;44826;51.596;5.624;2023-02-28T15:18:43;4.63;;;2.30;;
59042;SDS011;44826;51.596;5.624;2023-02-28T15:21:24;3.42;;;2.20;;
59042;SDS011;44826;51.596;5.624;2023-02-28T15:23:59;2.83;;;1.90;;
59042;SDS011;44826;51.596;5.624;2023-02-28T15:26:30;2.72;;;1.90;;
59042;SDS011;44826;51.596;5.624;2023-02-28T15:29:02;3.65;;;2.10;;
59042;SDS011;44826;51.596;5.624;2023-02-28T15:31:40;2.80;;;2.20;;
59042;SDS011;44826;51.596;5.624;2023-02-28T15:34:22;2.92;;;2.10;;
59042;SDS011;44826;51.596;5.624;2023-02-28T15:36:52;4.25;;;2.10;;
59042;SDS011;44826;51.596;5.624;2023-02-28T15:39:24;3.00;;;2.10;;
59042;SDS011;44826;51.596;5.624;2023-02-28T15:42:18;3.22;;;2.05;;
59042;SDS011;44826;51.596;5.624;2023-02-28T15:44:44;3.67;;;2.20;;
59042;SDS011;44826;51.596;5.624;2023-02-28T15:49:39;4.20;;;2.30;;
59042;SDS011;44826;51.596;5.624;2023-02-28T15:52:15;4.43;;;2.30;;
59042;SDS011;44826;51.596;5.624;2023-02-28T15:54:43;2.97;;;2.20;;
59042;SDS011;44826;51.596;5.624;2023-02-28T15:57:20;2.80;;;2.20;;
59042;SDS011;44826;51.596;5.624;2023-02-28T15:59:51;2.47;;;1.90;;
59042;SDS011;44826;51.596;5.624;2023-02-28T16:02:20;3.65;;;2.25;;
59042;SDS011;44826;51.596;5.624;2023-02-28T16:04:57;3.95;;;2.38;;
59042;SDS011;44826;51.596;5.624;2023-02-28T16:07:35;3.90;;;2.30;;
59042;SDS011;44826;51.596;5.624;2023-02-28T16:10:02;3.63;;;2.28;;
59042;SDS011;44826;51.596;5.624;2023-02-28T16:12:29;3.30;;;2.20;;
59042;SDS011;44826;51.596;5.624;2023-02-28T16:14:57;3.63;;;2.33;;
59042;SDS011;44826;51.596;5.624;2023-02-28T16:17:28;3.58;;;2.28;;
59042;SDS011;44826;51.596;5.624;2023-02-28T16:19:56;3.10;;;2.00;;
59042;SDS011;44826;51.596;5.624;2023-02-28T16:22:21;3.35;;;2.30;;
59042;SDS011;44826;51.596;5.624;2023-02-28T16:24:47;3.58;;;2.47;;
59042;SDS011;44826;51.596;5.624;2023-02-28T16:27:46;3.40;;;2.40;;
59042;SDS011;44826;51.596;5.624;2023-02-28T16:30:05;6.30;;;2.17;;
59042;SDS011;44826;51.596;5.624;2023-02-28T16:32:31;2.90;;;2.25;;
59042;SDS011;44826;51.596;5.624;2023-02-28T16:35:01;3.60;;;2.40;;
59042;SDS011;44826;51.596;5.624;2023-02-28T16:37:26;3.72;;;2.20;;
59042;SDS011;44826;51.596;5.624;2023-02-28T16:39:52;3.22;;;2.20;;
59042;SDS011;44826;51.596;5.624;2023-02-28T16:42:22;3.45;;;2.40;;
59042;SDS011;44826;51.596;5.624;2023-02-28T16:44:50;3.45;;;2.25;;
59042;SDS011;44826;51.596;5.624;2023-02-28T16:47:16;3.55;;;1.98;;
59042;SDS011;44826;51.596;5.624;2023-02-28T16:49:42;4.25;;;2.42;;
59042;SDS011;44826;51.596;5.624;2023-02-28T16:52:08;4.15;;;2.58;;
59042;SDS011;44826;51.596;5.624;2023-02-28T16:54:35;3.40;;;2.33;;
59042;SDS011;44826;51.596;5.624;2023-02-28T16:57:00;4.43;;;2.40;;
59042;SDS011;44826;51.596;5.624;2023-02-28T16:59:27;2.47;;;1.92;;
59042;SDS011;44826;51.596;5.624;2023-02-28T17:01:54;3.90;;;2.13;;
59042;SDS011;44826;51.596;5.624;2023-02-28T17:04:20;3.72;;;2.45;;
59042;SDS011;44826;51.596;5.624;2023-02-28T17:06:46;3.50;;;2.42;;
59042;SDS011;44826;51.596;5.624;2023-02-28T17:09:14;4.82;;;2.40;;
59042;SDS011;44826;51.596;5.624;2023-02-28T17:11:42;3.70;;;2.38;;
59042;SDS011;44826;51.596;5.624;2023-02-28T17:14:07;3.42;;;2.20;;
59042;SDS011;44826;51.596;5.624;2023-02-28T17:16:33;3.13;;;2.27;;
59042;SDS011;44826;51.596;5.624;2023-02-28T17:19:04;3.83;;;2.33;;
59042;SDS011;44826;51.596;5.624;2023-02-28T17:21:30;4.27;;;2.33;;
59042;SDS011;44826;51.596;5.624;2023-02-28T17:23:56;2.43;;;1.90;;
59042;SDS011;44826;51.596;5.624;2023-02-28T17:26:22;2.93;;;2.23;;
59042;SDS011;44826;51.596;5.624;2023-02-28T17:28:52;3.30;;;2.33;;
59042;SDS011;44826;51.596;5.624;2023-02-28T17:31:20;4.83;;;2.47;;
59042;SDS011;44826;51.596;5.624;2023-02-28T17:33:46;5.43;;;2.37;;
59042;SDS011;44826;51.596;5.624;2023-02-28T17:36:15;3.57;;;2.10;;
59042;SDS011;44826;51.596;5.624;2023-02-28T17:38:46;3.83;;;2.40;;
59042;SDS011;44826;51.596;5.624;2023-02-28T17:41:12;3.17;;;2.30;;
59042;SDS011;44826;51.596;5.624;2023-02-28T17:43:37;4.30;;;2.30;;